Flight Track Log - Related Links

Times and Time Zones

All times are in EDT time to prevent confusion due to time zone crossing. See the KEY9595 flight status page for this flight to view local times or setup timezone preferences in your user account.

Time Position Orientation Groundspeed Altitude Reporting Facility
EDT Latitude Longitude Course Direction KTS MPH feet Rate Location/Type
Sun 09:31:18 PM 41.9228 -72.6653 130° Southeast 153 176 1,000  Level Boston Center
Sun 09:31:36 PM 41.9111 -72.6467 130° Southeast 174 200 1,800 2,541 Climbing Boston Center
Sun 09:32:43 PM 41.8447 -72.6261 167° South 223 257 4,600 2,484 Climbing Boston Center
Sun 09:33:44 PM 41.7742 -72.5903 159° South 274 315 7,100 2,508 Climbing Boston Center
Sun 09:34:45 PM 41.7058 -72.5264 145° Southeast 294 338 9,700 2,508 Climbing Boston Center
Sun 09:35:46 PM 41.6203 -72.5197 177° South 320 368 12,200 2,754 Climbing Boston Center
Sun 09:36:47 PM 41.5261 -72.5375 188° South 340 391 15,300 3,197 Climbing Boston Center
Sun 09:37:48 PM 41.4156 -72.5561 187° South 374 430 18,700 2,951 Climbing Boston Center
Sun 09:38:49 PM 41.3275 -72.6017 201° Southwest 377 434 21,300 1,918 Climbing Boston Center
Sun 09:39:50 PM 41.2117 -72.6586 200° South 407 468 22,600 1,721 Climbing Boston Center
Sun 09:40:51 PM 41.0994 -72.7147 201° Southwest 424 488 24,800 2,213 Climbing Boston Center
Sun 09:41:52 PM 40.9867 -72.7694 200° South 427 491 27,100 1,672 Climbing Boston Center
Sun 09:42:53 PM 40.8719 -72.8275 201° Southwest 443 510 28,200 1,279 Climbing Boston Center
Sun 09:43:54 PM 40.7531 -72.8889 201° Southwest 459 528 29,700 1,918 Climbing Boston Center
Sun 09:44:55 PM 40.6494 -72.9764 213° Southwest 445 512 32,100 2,628 Climbing Boston Center
Sun 09:45:55 PM 40.5583 -73.0692 218° Southwest 423 487 35,000 2,529 Climbing Boston Center
Sun 09:46:56 PM 40.4733 -73.1550 218° Southwest 397 457 37,200 1,967 Climbing Boston Center
Sun 09:47:57 PM 40.3919 -73.2361 217° Southwest 376 433 39,000 1,328 Climbing Boston Center
Sun 09:48:58 PM 40.3092 -73.3100 214° Southwest 365 420 39,900 443 Climbing Boston Center
Sun 09:49:59 PM 40.2183 -73.3789 210° Southwest 372 428 39,900  Level Boston Center
Sun 09:51:09 PM 40.0989 -73.4706 210° Southwest 394 453 39,900 49 Level Washington Center
Sun 09:52:01 PM 40.0192 -73.5353 212° Southwest 411 473 40,000  Climbing Boston Center
Sun 09:53:01 PM 39.9006 -73.6264 211° Southwest 420 483 39,900 -50 Descending Boston Center
Sun 09:54:02 PM 39.8017 -73.7039 211° Southwest 420 483 39,900  Level Boston Center
Sun 09:55:03 PM 39.6992 -73.7825 211° Southwest 422 486 39,900  Level Boston Center
Sun 09:56:04 PM 39.5967 -73.8611 211° Southwest 428 493 39,900  Level Boston Center
Sun 09:57:04 PM 39.4942 -73.9417 211° Southwest 430 495 39,900  Level Boston Center
Sun 09:58:05 PM 39.3903 -74.0203 210° Southwest 430 495 39,900  Level Boston Center
Sun 09:59:09 PM 39.2769 -74.1061 210° Southwest 433 498 39,900  Level Washington Center
Sun 10:00:09 PM 39.1739 -74.1886 212° Southwest 438 504 39,900  Level Washington Center
Sun 10:01:07 PM 39.0706 -74.2683 211° Southwest 438 504 39,900  Level Washington Center
Sun 10:02:08 PM 38.9650 -74.3450 209° Southwest 438 504 39,900  Level Washington Center
Sun 10:03:09 PM 38.8594 -74.4239 210° Southwest 438 504 39,900  Level Washington Center
Sun 10:04:09 PM 38.7561 -74.5056 212° Southwest 438 504 39,900  Level Washington Center
Sun 10:05:07 PM 38.6506 -74.5842 210° Southwest 438 504 39,900 305 Level Washington Center
Sun 10:06:07 PM 38.5469 -74.6600 210° Southwest 438 504 40,500 992 Climbing Washington Center
Sun 10:07:08 PM 38.4472 -74.7408 212° Southwest 438 504 41,900 1,091 Climbing Washington Center
Sun 10:08:08 PM 38.3519 -74.8106 210° Southwest 421 484 42,700 504 Climbing Washington Center
Sun 10:09:07 PM 38.2647 -74.8778 211° Southwest 415 478 42,900 101 Climbing Washington Center
Sun 10:10:07 PM 38.1631 -74.9528 210° Southwest 421 484 42,900  Level Washington Center
Sun 10:11:09 PM 38.0569 -75.0275 209° Southwest 433 498 42,900  Level Washington Center
Sun 10:12:09 PM 37.9469 -75.1072 210° Southwest 444 511 42,900  Level Washington Center
Sun 10:13:09 PM 37.8344 -75.1894 210° Southwest 455 524 42,900  Level Washington Center
Sun 10:14:09 PM 37.7222 -75.2689 209° Southwest 466 536 42,900  Level Washington Center
Sun 10:15:09 PM 37.6119 -75.3506 210° Southwest 471 542 42,900  Level Washington Center
Sun 10:16:07 PM 37.5014 -75.4294 210° Southwest 465 535 42,900  Level Washington Center
Sun 10:17:07 PM 37.3889 -75.5108 210° Southwest 465 535 42,900  Level Washington Center
Sun 10:18:07 PM 37.2783 -75.5919 210° Southwest 465 535 42,900  Level Washington Center
Sun 10:19:08 PM 37.1636 -75.6728 209° Southwest 465 535 42,900  Level Washington Center
Sun 10:20:08 PM 37.0508 -75.7533 210° Southwest 465 535 42,900 50 Level Washington Center
Sun 10:21:07 PM 36.9339 -75.8308 208° Southwest 465 535 43,000 50 Climbing Washington Center
Sun 10:22:09 PM 36.8192 -75.9058 208° Southwest 473 544 43,000  Level Washington Center
Sun 10:23:07 PM 36.6894 -75.9806 205° Southwest 468 539 43,000 -51 Level Washington Center
Sun 10:24:07 PM 36.5767 -76.0239 197° South 468 539 42,900 -50 Descending Washington Center
Sun 10:25:08 PM 36.4597 -76.0825 202° Southwest 468 539 42,900  Level Washington Center
Sun 10:26:09 PM 36.3406 -76.1386 201° Southwest 468 539 42,900  Level Washington Center
Sun 10:27:09 PM 36.2214 -76.1969 202° Southwest 463 533 42,900  Level Washington Center
Sun 10:28:07 PM 36.1019 -76.2528 201° Southwest 463 533 42,900  Level Washington Center
Sun 10:29:08 PM 35.9828 -76.3108 202° Southwest 463 533 42,900  Level Washington Center
Sun 10:30:08 PM 35.8594 -76.3661 200° South 463 533 42,900  Level Washington Center
Sun 10:31:07 PM 35.7400 -76.4264 202° Southwest 468 539 42,900  Level Washington Center
Sun 10:32:07 PM 35.6186 -76.4864 202° Southwest 468 539 42,900  Level Washington Center
Sun 10:33:09 PM 35.4950 -76.5411 200° South 473 544 42,900  Level Washington Center
Sun 10:34:07 PM 35.3756 -76.5983 201° Southwest 473 544 42,900 51 Level Washington Center
Sun 10:35:07 PM 35.2561 -76.6528 200° South 473 544 43,000 50 Climbing Washington Center
Sun 10:36:08 PM 35.1347 -76.7097 201° Southwest 473 544 43,000 -50 Level Washington Center
Sun 10:37:08 PM 35.0172 -76.7664 202° Southwest 473 544 42,900 -50 Descending Washington Center
Sun 10:38:09 PM 34.9000 -76.8203 201° Southwest 468 539 42,900  Level Washington Center
Sun 10:39:07 PM 34.7783 -76.8767 201° Southwest 468 539 42,900  Level Washington Center
Sun 10:40:07 PM 34.6589 -76.9328 201° Southwest 468 539 42,900  Level Washington Center
Sun 10:41:08 PM 34.5392 -76.9864 200° South 474 545 42,900  Level Washington Center
Sun 10:42:09 PM 34.4175 -77.0422 201° Southwest 474 545 42,900  Level Washington Center
Sun 10:43:09 PM 34.2981 -77.0953 200° South 474 545 42,900  Level Washington Center
Sun 10:45:09 PM 34.0544 -77.2056 201° Southwest 449 517 42,900  Level Jacksonville Center
Sun 10:46:09 PM 33.9319 -77.2611 201° Southwest 455 524 42,900  Level Jacksonville Center
Sun 10:47:09 PM 33.8131 -77.3139 200° South 461 531 42,900  Level Jacksonville Center
Sun 10:48:09 PM 33.6906 -77.3689 200° South 461 531 42,900  Level Jacksonville Center
Sun 10:49:09 PM 33.5678 -77.4239 200° South 461 531 42,900  Level Jacksonville Center
Sun 10:50:09 PM 33.4469 -77.4789 201° Southwest 461 531 42,900  Level Jacksonville Center
Sun 10:51:09 PM 33.3219 -77.5336 200° South 466 536 42,900  Level Jacksonville Center
Sun 10:52:09 PM 33.2011 -77.5881 201° Southwest 466 536 42,900  Level Jacksonville Center
Sun 10:53:09 PM 33.0803 -77.6422 201° Southwest 466 536 42,900  Level Jacksonville Center
Sun 10:54:09 PM 32.9572 -77.6939 199° South 460 529 42,900  Level Jacksonville Center
Sun 10:55:09 PM 32.8364 -77.7481 201° Southwest 460 529 42,900  Level Jacksonville Center
Sun 10:56:09 PM 32.7153 -77.8017 200° South 460 529 42,900  Level Jacksonville Center
Sun 10:57:09 PM 32.5942 -77.8531 200° South 460 529 42,900  Level Jacksonville Center
Sun 10:58:09 PM 32.4733 -77.9089 201° Southwest 460 529 42,900  Level Jacksonville Center
Sun 10:59:09 PM 32.3500 -77.9575 198° South 460 529 42,900  Level Jacksonville Center
Sun 11:00:09 PM 32.2292 -78.0156 202° Southwest 460 529 42,900  Level Jacksonville Center
Sun 11:01:09 PM 32.1058 -78.0661 199° South 466 536 42,900  Level Jacksonville Center
Sun 11:02:09 PM 31.9867 -78.1167 200° South 466 536 42,900  Level Jacksonville Center
Sun 11:03:09 PM 31.8656 -78.1717 201° Southwest 461 531 42,900  Level Jacksonville Center
Sun 11:04:09 PM 31.7422 -78.2194 198° South 461 531 42,900  Level Jacksonville Center
Sun 11:05:09 PM 31.6211 -78.2769 202° Southwest 461 531 42,900  Level Jacksonville Center
Sun 11:06:09 PM 31.4917 -78.3344 201° Southwest 453 521 42,900  Level Jacksonville Center
Sun 11:07:09 PM 31.3725 -78.3842 200° South 458 527 42,900  Level Jacksonville Center
Sun 11:08:09 PM 31.2531 -78.4336 199° South 463 533 42,900  Level Jacksonville Center
Sun 11:09:09 PM 31.1317 -78.4856 200° South 462 532 42,900  Level Jacksonville Center
Sun 11:10:09 PM 31.0081 -78.5347 199° South 456 525 42,900  Level Jacksonville Center
Sun 11:11:09 PM 30.8908 -78.5861 201° Southwest 464 534 42,900  Level Jacksonville Center
Sun 11:12:09 PM 30.7717 -78.6375 200° South 458 527 42,900  Level Jacksonville Center
Sun 11:14:30 PM 30.5033 -78.7403 198° South 451 519 42,900  Level Miami Center
Sun 11:15:30 PM 30.3842 -78.7864 198° South 461 531 42,900  Level Miami Center
Sun 11:16:30 PM 30.2647 -78.8275 197° South 461 531 42,900  Level Miami Center
Sun 11:17:30 PM 30.1389 -78.8731 197° South 461 531 42,900  Level Miami Center
Sun 11:18:32 PM 30.0111 -78.9233 199° South 456 525 42,900  Level Miami Center
Sun 11:19:30 PM 29.8875 -78.9689 198° South 456 525 42,900  Level Miami Center
Sun 11:20:32 PM 29.7742 -79.0097 197° South 456 525 42,900  Level Miami Center
Sun 11:21:32 PM 29.6467 -79.0286 187° South 462 532 42,900  Level Miami Center
Sun 11:22:30 PM 29.5211 -79.0500 188° South 457 526 42,900  Level Miami Center
Sun 11:23:31 PM 29.3978 -79.0736 189° South 452 520 42,900  Level Miami Center
Sun 11:24:30 PM 29.2681 -79.0925 187° South 452 520 42,900 -550 Level Miami Center
Sun 11:25:31 PM 29.1447 -79.1161 189° South 452 520 41,800 -1,488 Descending Miami Center
Sun 11:26:31 PM 29.0233 -79.1397 190° South 452 520 39,900 -1,966 Descending Miami Center
Sun 11:27:30 PM 28.9019 -79.1633 190° South 452 520 37,900 -2,000 Descending Miami Center
Sun 11:28:31 PM 28.7744 -79.1842 188° South 447 514 35,900 -2,033 Descending Miami Center
Sun 11:29:31 PM 28.6508 -79.2078 190° South 453 521 33,800 -2,118 Descending Miami Center
Sun 11:30:30 PM 28.5189 -79.2286 188° South 467 537 31,700 -2,067 Descending Miami Center
Sun 11:31:30 PM 28.3892 -79.2519 189° South 472 543 29,700 -1,983 Descending Miami Center
Sun 11:32:31 PM 28.2653 -79.2939 197° South 466 536 27,700 -2,033 Descending Miami Center
Sun 11:33:31 PM 28.1536 -79.3553 206° Southwest 450 518 25,600 -2,118 Descending Miami Center
Sun 11:34:30 PM 28.0400 -79.4139 204° Southwest 450 518 23,500 -1,983 Descending Miami Center
Sun 11:35:32 PM 27.9303 -79.4700 204° Southwest 450 518 21,600 -1,736 Descending Miami Center
Sun 11:36:31 PM 27.8397 -79.5175 205° Southwest 429 494 20,000 -1,916 Descending Miami Center
Sun 11:37:31 PM 27.7239 -79.5758 204° Southwest 416 479 17,800 -1,916 Descending Miami Center
Sun 11:38:30 PM 27.6269 -79.6250 204° Southwest 395 455 16,200 -1,563 Descending Miami Center
Sun 11:39:30 PM 27.5339 -79.6742 205° Southwest 377 434 14,700 -1,550 Descending Miami Center
Sun 11:40:30 PM 27.4539 -79.7144 204° Southwest 356 410 13,100 -1,550 Descending Miami Center
Sun 11:41:30 PM 27.3675 -79.7589 205° Southwest 346 398 11,600 -1,550 Descending Miami Center
Sun 11:42:30 PM 27.2744 -79.8081 205° Southwest 341 392 10,000 -1,500 Descending Miami Center
Sun 11:43:30 PM 27.1944 -79.8481 204° Southwest 330 380 8,600 -984 Descending Miami Center
Sun 11:44:32 PM 27.1206 -79.8836 203° Southwest 311 358 8,000 -295 Descending Miami Center
Sun 11:45:32 PM 27.0492 -79.9028 193° South 295 339 8,000 -458 Level Miami Center
Sun 11:46:30 PM 26.9714 -79.9286 196° South 290 334 7,100 -966 Descending Miami Center
Sun 11:47:30 PM 26.8850 -79.9544 195° South 290 334 6,100 -850 Descending Miami Center
Sun 11:48:30 PM 26.8072 -79.9778 195° South 290 334 5,400 -725 Descending Miami Center
Sun 11:49:01 PM 26.7611 -79.9906 194° South 288 331 5,000 -400 Descending Miami Center
Sun 11:49:30 PM 26.7358 -79.9969 193° South 296 341 5,000 -429 Level Miami Center
Sun 11:49:57 PM 26.6961 -80.0097 196° South 285 328 4,600 -800 Descending Miami Center
Sun 11:50:30 PM 26.6519 -80.0225 194° South 291 335 4,200 -600 Descending Miami Center
Sun 11:50:57 PM 26.6161 -80.0378 201° Southwest 283 326 4,000 -270 Descending Miami Center
Sun 11:51:59 PM 26.5467 -80.0569 194° South 256 295 3,800 -683 Descending Miami Center
Sun 11:53:00 PM 26.4897 -80.0878 206° Southwest 213 245 2,600 -1,180 Descending Miami Center

Login

Don't have an account? Register now (free) for customized features, flight alerts, and more!